sensor_id;sensor_type;location;lat;lon;timestamp;P1;durP1;ratioP1;P2;durP2;ratioP2
55537;SDS011;41383;51.418;7.286;2023-02-10T00:01:13;39.58;;;22.70;;
55537;SDS011;41383;51.418;7.286;2023-02-10T00:03:40;37.50;;;25.10;;
55537;SDS011;41383;51.418;7.286;2023-02-10T00:06:08;36.00;;;19.90;;
55537;SDS011;41383;51.418;7.286;2023-02-10T00:08:35;42.42;;;22.88;;
55537;SDS011;41383;51.418;7.286;2023-02-10T00:11:02;42.53;;;21.98;;
55537;SDS011;41383;51.418;7.286;2023-02-10T00:13:29;48.45;;;22.80;;
55537;SDS011;41383;51.418;7.286;2023-02-10T00:15:59;43.58;;;24.95;;
55537;SDS011;41383;51.418;7.286;2023-02-10T00:18:26;35.00;;;19.20;;
55537;SDS011;41383;51.418;7.286;2023-02-10T00:20:52;38.83;;;23.05;;
55537;SDS011;41383;51.418;7.286;2023-02-10T00:23:17;44.15;;;24.30;;
55537;SDS011;41383;51.418;7.286;2023-02-10T00:25:42;47.40;;;24.02;;
55537;SDS011;41383;51.418;7.286;2023-02-10T00:28:08;38.92;;;20.33;;
55537;SDS011;41383;51.418;7.286;2023-02-10T00:30:33;42.08;;;23.33;;
55537;SDS011;41383;51.418;7.286;2023-02-10T00:32:58;40.25;;;24.95;;
55537;SDS011;41383;51.418;7.286;2023-02-10T00:35:24;49.70;;;23.13;;
55537;SDS011;41383;51.418;7.286;2023-02-10T00:37:49;36.03;;;20.00;;
55537;SDS011;41383;51.418;7.286;2023-02-10T00:40:15;42.17;;;23.17;;
55537;SDS011;41383;51.418;7.286;2023-02-10T00:42:41;38.03;;;21.77;;
55537;SDS011;41383;51.418;7.286;2023-02-10T00:45:06;43.38;;;23.25;;
55537;SDS011;41383;51.418;7.286;2023-02-10T00:47:32;45.80;;;26.17;;
55537;SDS011;41383;51.418;7.286;2023-02-10T00:49:57;48.38;;;25.88;;
55537;SDS011;41383;51.418;7.286;2023-02-10T00:52:22;49.47;;;25.03;;
55537;SDS011;41383;51.418;7.286;2023-02-10T00:54:48;47.50;;;27.17;;
55537;SDS011;41383;51.418;7.286;2023-02-10T00:57:13;40.30;;;23.50;;
55537;SDS011;41383;51.418;7.286;2023-02-10T00:59:39;44.38;;;23.38;;
55537;SDS011;41383;51.418;7.286;2023-02-10T01:02:04;40.38;;;23.30;;
55537;SDS011;41383;51.418;7.286;2023-02-10T01:04:29;43.13;;;24.80;;
55537;SDS011;41383;51.418;7.286;2023-02-10T01:06:55;40.28;;;24.92;;
55537;SDS011;41383;51.418;7.286;2023-02-10T01:09:20;45.97;;;25.55;;
55537;SDS011;41383;51.418;7.286;2023-02-10T01:11:45;46.77;;;23.80;;
55537;SDS011;41383;51.418;7.286;2023-02-10T01:14:10;43.67;;;23.30;;
55537;SDS011;41383;51.418;7.286;2023-02-10T01:16:36;37.97;;;23.77;;
55537;SDS011;41383;51.418;7.286;2023-02-10T01:19:02;43.75;;;21.58;;
55537;SDS011;41383;51.418;7.286;2023-02-10T01:21:28;40.75;;;23.75;;
55537;SDS011;41383;51.418;7.286;2023-02-10T01:23:53;42.17;;;22.85;;
55537;SDS011;41383;51.418;7.286;2023-02-10T01:26:18;39.35;;;23.05;;
55537;SDS011;41383;51.418;7.286;2023-02-10T01:28:44;37.35;;;24.27;;
55537;SDS011;41383;51.418;7.286;2023-02-10T01:31:19;44.80;;;23.13;;
55537;SDS011;41383;51.418;7.286;2023-02-10T01:33:45;40.78;;;23.00;;
55537;SDS011;41383;51.418;7.286;2023-02-10T01:36:12;42.45;;;21.42;;
55537;SDS011;41383;51.418;7.286;2023-02-10T01:38:39;45.40;;;25.85;;
55537;SDS011;41383;51.418;7.286;2023-02-10T01:41:05;42.72;;;23.77;;
55537;SDS011;41383;51.418;7.286;2023-02-10T01:43:31;41.15;;;22.83;;
55537;SDS011;41383;51.418;7.286;2023-02-10T01:45:56;46.60;;;24.05;;
55537;SDS011;41383;51.418;7.286;2023-02-10T01:48:22;45.67;;;24.38;;
55537;SDS011;41383;51.418;7.286;2023-02-10T01:50:54;45.25;;;22.63;;
55537;SDS011;41383;51.418;7.286;2023-02-10T01:53:22;44.38;;;24.85;;
55537;SDS011;41383;51.418;7.286;2023-02-10T01:55:49;43.25;;;23.48;;
55537;SDS011;41383;51.418;7.286;2023-02-10T01:58:21;43.45;;;23.42;;
55537;SDS011;41383;51.418;7.286;2023-02-10T02:00:50;42.72;;;24.92;;
55537;SDS011;41383;51.418;7.286;2023-02-10T02:03:15;59.60;;;28.65;;
55537;SDS011;41383;51.418;7.286;2023-02-10T02:05:41;41.22;;;24.55;;
55537;SDS011;41383;51.418;7.286;2023-02-10T02:08:15;47.58;;;22.90;;
55537;SDS011;41383;51.418;7.286;2023-02-10T02:16:57;40.70;;;25.15;;
55537;SDS011;41383;51.418;7.286;2023-02-10T02:19:35;47.85;;;23.08;;
55537;SDS011;41383;51.418;7.286;2023-02-10T02:25:07;38.63;;;24.70;;
55537;SDS011;41383;51.418;7.286;2023-02-10T02:33:31;44.78;;;24.45;;
55537;SDS011;41383;51.418;7.286;2023-02-10T02:36:07;40.40;;;26.20;;
55537;SDS011;41383;51.418;7.286;2023-02-10T02:38:37;63.95;;;26.17;;
55537;SDS011;41383;51.418;7.286;2023-02-10T02:41:03;41.83;;;22.83;;
55537;SDS011;41383;51.418;7.286;2023-02-10T02:43:28;47.30;;;26.67;;
55537;SDS011;41383;51.418;7.286;2023-02-10T02:45:55;44.25;;;22.65;;
55537;SDS011;41383;51.418;7.286;2023-02-10T02:48:34;39.00;;;22.98;;
55537;SDS011;41383;51.418;7.286;2023-02-10T02:51:17;47.85;;;26.90;;
55537;SDS011;41383;51.418;7.286;2023-02-10T02:53:45;45.88;;;26.52;;
55537;SDS011;41383;51.418;7.286;2023-02-10T03:04:21;46.85;;;25.38;;
55537;SDS011;41383;51.418;7.286;2023-02-10T03:06:47;46.40;;;27.48;;
55537;SDS011;41383;51.418;7.286;2023-02-10T03:09:12;56.95;;;26.38;;
55537;SDS011;41383;51.418;7.286;2023-02-10T03:11:38;44.75;;;25.65;;
55537;SDS011;41383;51.418;7.286;2023-02-10T03:14:04;44.97;;;25.83;;
55537;SDS011;41383;51.418;7.286;2023-02-10T03:16:29;39.90;;;25.00;;
55537;SDS011;41383;51.418;7.286;2023-02-10T03:18:55;51.47;;;28.60;;
55537;SDS011;41383;51.418;7.286;2023-02-10T03:21:20;38.50;;;23.00;;
55537;SDS011;41383;51.418;7.286;2023-02-10T03:23:45;37.25;;;21.10;;
55537;SDS011;41383;51.418;7.286;2023-02-10T03:26:11;43.93;;;22.50;;
55537;SDS011;41383;51.418;7.286;2023-02-10T03:28:37;44.15;;;24.30;;
55537;SDS011;41383;51.418;7.286;2023-02-10T03:31:06;49.88;;;28.55;;
55537;SDS011;41383;51.418;7.286;2023-02-10T03:33:32;43.03;;;28.30;;
55537;SDS011;41383;51.418;7.286;2023-02-10T03:35:57;42.80;;;24.42;;
55537;SDS011;41383;51.418;7.286;2023-02-10T03:38:23;55.53;;;27.52;;
55537;SDS011;41383;51.418;7.286;2023-02-10T03:40:50;46.00;;;24.85;;
55537;SDS011;41383;51.418;7.286;2023-02-10T03:43:16;43.65;;;24.52;;
55537;SDS011;41383;51.418;7.286;2023-02-10T03:45:43;42.10;;;23.95;;
55537;SDS011;41383;51.418;7.286;2023-02-10T03:48:09;45.47;;;26.27;;
55537;SDS011;41383;51.418;7.286;2023-02-10T03:50:35;49.30;;;27.35;;
55537;SDS011;41383;51.418;7.286;2023-02-10T03:53:00;47.15;;;24.67;;
55537;SDS011;41383;51.418;7.286;2023-02-10T03:55:25;53.33;;;27.50;;
55537;SDS011;41383;51.418;7.286;2023-02-10T03:57:51;43.45;;;26.40;;
55537;SDS011;41383;51.418;7.286;2023-02-10T04:00:16;48.65;;;25.77;;
55537;SDS011;41383;51.418;7.286;2023-02-10T04:02:42;48.17;;;25.75;;
55537;SDS011;41383;51.418;7.286;2023-02-10T04:05:07;47.30;;;27.30;;
55537;SDS011;41383;51.418;7.286;2023-02-10T04:07:32;50.67;;;29.15;;
55537;SDS011;41383;51.418;7.286;2023-02-10T04:09:58;47.35;;;27.45;;
55537;SDS011;41383;51.418;7.286;2023-02-10T04:12:23;45.47;;;27.73;;
55537;SDS011;41383;51.418;7.286;2023-02-10T04:14:48;49.88;;;24.58;;
55537;SDS011;41383;51.418;7.286;2023-02-10T04:17:13;49.10;;;27.30;;
55537;SDS011;41383;51.418;7.286;2023-02-10T04:19:39;52.17;;;26.83;;
55537;SDS011;41383;51.418;7.286;2023-02-10T04:22:04;47.22;;;25.52;;
55537;SDS011;41383;51.418;7.286;2023-02-10T04:24:29;49.65;;;29.38;;
55537;SDS011;41383;51.418;7.286;2023-02-10T04:26:54;44.40;;;25.60;;
55537;SDS011;41383;51.418;7.286;2023-02-10T04:29:21;50.55;;;26.80;;
55537;SDS011;41383;51.418;7.286;2023-02-10T04:31:47;47.88;;;27.60;;
55537;SDS011;41383;51.418;7.286;2023-02-10T04:34:12;41.90;;;25.50;;
55537;SDS011;41383;51.418;7.286;2023-02-10T04:36:37;40.03;;;24.35;;
55537;SDS011;41383;51.418;7.286;2023-02-10T04:39:02;42.15;;;23.83;;
55537;SDS011;41383;51.418;7.286;2023-02-10T04:41:28;45.47;;;25.63;;
55537;SDS011;41383;51.418;7.286;2023-02-10T04:43:53;56.08;;;26.42;;
55537;SDS011;41383;51.418;7.286;2023-02-10T04:46:18;41.40;;;25.93;;
55537;SDS011;41383;51.418;7.286;2023-02-10T04:48:43;40.53;;;24.45;;
55537;SDS011;41383;51.418;7.286;2023-02-10T04:51:09;48.38;;;25.17;;
55537;SDS011;41383;51.418;7.286;2023-02-10T04:53:36;38.45;;;24.65;;
55537;SDS011;41383;51.418;7.286;2023-02-10T04:56:02;59.40;;;27.05;;
55537;SDS011;41383;51.418;7.286;2023-02-10T04:58:28;48.30;;;26.58;;
55537;SDS011;41383;51.418;7.286;2023-02-10T05:00:55;34.97;;;25.55;;
55537;SDS011;41383;51.418;7.286;2023-02-10T05:03:20;42.92;;;24.77;;
55537;SDS011;41383;51.418;7.286;2023-02-10T05:05:45;53.03;;;25.52;;
55537;SDS011;41383;51.418;7.286;2023-02-10T05:08:11;52.40;;;28.13;;
55537;SDS011;41383;51.418;7.286;2023-02-10T05:10:36;44.03;;;24.50;;
55537;SDS011;41383;51.418;7.286;2023-02-10T05:13:01;54.63;;;28.48;;
55537;SDS011;41383;51.418;7.286;2023-02-10T05:15:27;46.00;;;27.13;;
55537;SDS011;41383;51.418;7.286;2023-02-10T05:17:52;40.13;;;26.10;;
55537;SDS011;41383;51.418;7.286;2023-02-10T05:20:17;46.40;;;25.63;;
55537;SDS011;41383;51.418;7.286;2023-02-10T05:22:42;44.58;;;26.63;;
55537;SDS011;41383;51.418;7.286;2023-02-10T05:25:08;43.20;;;26.03;;
55537;SDS011;41383;51.418;7.286;2023-02-10T05:27:33;46.25;;;27.50;;
55537;SDS011;41383;51.418;7.286;2023-02-10T05:29:59;54.80;;;28.85;;
55537;SDS011;41383;51.418;7.286;2023-02-10T05:32:24;54.45;;;28.23;;
55537;SDS011;41383;51.418;7.286;2023-02-10T05:34:50;53.17;;;25.00;;
55537;SDS011;41383;51.418;7.286;2023-02-10T05:37:15;43.88;;;25.77;;
55537;SDS011;41383;51.418;7.286;2023-02-10T05:39:40;51.33;;;29.27;;
55537;SDS011;41383;51.418;7.286;2023-02-10T05:42:06;57.57;;;31.57;;
55537;SDS011;41383;51.418;7.286;2023-02-10T05:44:31;46.53;;;28.95;;
55537;SDS011;41383;51.418;7.286;2023-02-10T05:46:57;39.85;;;25.38;;
55537;SDS011;41383;51.418;7.286;2023-02-10T05:49:22;49.38;;;26.63;;
55537;SDS011;41383;51.418;7.286;2023-02-10T05:51:48;48.60;;;27.88;;
55537;SDS011;41383;51.418;7.286;2023-02-10T05:54:13;45.85;;;26.42;;
55537;SDS011;41383;51.418;7.286;2023-02-10T05:56:39;53.83;;;29.33;;
55537;SDS011;41383;51.418;7.286;2023-02-10T05:59:04;47.05;;;27.10;;
55537;SDS011;41383;51.418;7.286;2023-02-10T06:01:30;46.25;;;25.25;;
55537;SDS011;41383;51.418;7.286;2023-02-10T06:03:56;46.17;;;26.40;;
55537;SDS011;41383;51.418;7.286;2023-02-10T06:06:22;50.47;;;27.35;;
55537;SDS011;41383;51.418;7.286;2023-02-10T06:08:48;52.67;;;27.73;;
55537;SDS011;41383;51.418;7.286;2023-02-10T06:11:13;40.60;;;24.45;;
55537;SDS011;41383;51.418;7.286;2023-02-10T06:13:39;47.90;;;27.58;;
55537;SDS011;41383;51.418;7.286;2023-02-10T06:16:04;45.45;;;25.13;;
55537;SDS011;41383;51.418;7.286;2023-02-10T06:18:30;45.67;;;27.70;;
55537;SDS011;41383;51.418;7.286;2023-02-10T06:20:56;47.78;;;27.05;;
55537;SDS011;41383;51.418;7.286;2023-02-10T06:23:22;47.58;;;27.88;;
55537;SDS011;41383;51.418;7.286;2023-02-10T06:25:48;50.88;;;29.42;;
55537;SDS011;41383;51.418;7.286;2023-02-10T06:28:14;47.67;;;26.50;;
55537;SDS011;41383;51.418;7.286;2023-02-10T06:30:40;53.03;;;27.35;;
55537;SDS011;41383;51.418;7.286;2023-02-10T06:33:06;41.42;;;23.42;;
55537;SDS011;41383;51.418;7.286;2023-02-10T06:35:31;50.03;;;25.10;;
55537;SDS011;41383;51.418;7.286;2023-02-10T06:37:57;45.22;;;26.92;;
55537;SDS011;41383;51.418;7.286;2023-02-10T06:40:22;50.97;;;25.10;;
55537;SDS011;41383;51.418;7.286;2023-02-10T06:42:47;44.00;;;26.08;;
55537;SDS011;41383;51.418;7.286;2023-02-10T06:45:13;46.78;;;25.88;;
55537;SDS011;41383;51.418;7.286;2023-02-10T06:47:38;56.80;;;25.10;;
55537;SDS011;41383;51.418;7.286;2023-02-10T06:50:03;45.70;;;25.60;;
55537;SDS011;41383;51.418;7.286;2023-02-10T06:52:29;54.10;;;30.30;;
55537;SDS011;41383;51.418;7.286;2023-02-10T06:54:56;41.67;;;26.73;;
55537;SDS011;41383;51.418;7.286;2023-02-10T06:57:21;41.47;;;25.48;;
55537;SDS011;41383;51.418;7.286;2023-02-10T06:59:47;50.20;;;26.10;;
55537;SDS011;41383;51.418;7.286;2023-02-10T07:02:12;41.13;;;26.47;;
55537;SDS011;41383;51.418;7.286;2023-02-10T07:04:37;48.50;;;27.35;;
55537;SDS011;41383;51.418;7.286;2023-02-10T07:07:03;49.42;;;25.73;;
55537;SDS011;41383;51.418;7.286;2023-02-10T07:09:28;47.20;;;25.40;;
55537;SDS011;41383;51.418;7.286;2023-02-10T07:11:53;46.03;;;24.52;;
55537;SDS011;41383;51.418;7.286;2023-02-10T07:14:19;40.70;;;24.83;;
55537;SDS011;41383;51.418;7.286;2023-02-10T07:16:44;52.58;;;28.38;;
55537;SDS011;41383;51.418;7.286;2023-02-10T07:19:09;44.10;;;26.80;;
55537;SDS011;41383;51.418;7.286;2023-02-10T07:21:35;45.13;;;26.63;;
55537;SDS011;41383;51.418;7.286;2023-02-10T07:24:00;47.90;;;28.48;;
55537;SDS011;41383;51.418;7.286;2023-02-10T07:26:26;38.40;;;22.98;;
55537;SDS011;41383;51.418;7.286;2023-02-10T07:28:52;52.88;;;27.48;;
55537;SDS011;41383;51.418;7.286;2023-02-10T07:31:18;51.75;;;29.17;;
55537;SDS011;41383;51.418;7.286;2023-02-10T07:33:43;48.70;;;26.63;;
55537;SDS011;41383;51.418;7.286;2023-02-10T07:36:08;57.78;;;30.20;;
55537;SDS011;41383;51.418;7.286;2023-02-10T07:38:34;40.53;;;25.13;;
55537;SDS011;41383;51.418;7.286;2023-02-10T07:41:00;49.03;;;26.00;;
55537;SDS011;41383;51.418;7.286;2023-02-10T07:43:26;53.15;;;30.85;;
55537;SDS011;41383;51.418;7.286;2023-02-10T07:45:51;50.00;;;25.42;;
55537;SDS011;41383;51.418;7.286;2023-02-10T07:48:17;55.80;;;29.40;;
55537;SDS011;41383;51.418;7.286;2023-02-10T07:50:43;52.00;;;29.00;;
55537;SDS011;41383;51.418;7.286;2023-02-10T07:53:09;50.28;;;25.45;;
55537;SDS011;41383;51.418;7.286;2023-02-10T07:55:36;46.03;;;25.30;;
55537;SDS011;41383;51.418;7.286;2023-02-10T07:58:01;41.65;;;23.58;;
55537;SDS011;41383;51.418;7.286;2023-02-10T08:00:26;41.70;;;25.92;;
55537;SDS011;41383;51.418;7.286;2023-02-10T08:02:52;48.45;;;27.52;;
55537;SDS011;41383;51.418;7.286;2023-02-10T08:05:17;47.40;;;27.48;;
55537;SDS011;41383;51.418;7.286;2023-02-10T08:07:42;49.20;;;25.27;;
55537;SDS011;41383;51.418;7.286;2023-02-10T08:10:07;39.13;;;24.17;;
55537;SDS011;41383;51.418;7.286;2023-02-10T08:12:33;52.70;;;23.70;;
55537;SDS011;41383;51.418;7.286;2023-02-10T08:14:58;61.73;;;24.67;;
55537;SDS011;41383;51.418;7.286;2023-02-10T08:17:23;53.08;;;29.33;;
55537;SDS011;41383;51.418;7.286;2023-02-10T08:19:49;53.17;;;25.23;;
55537;SDS011;41383;51.418;7.286;2023-02-10T08:22:14;49.28;;;26.98;;
55537;SDS011;41383;51.418;7.286;2023-02-10T08:24:39;54.33;;;29.30;;
55537;SDS011;41383;51.418;7.286;2023-02-10T08:27:05;47.67;;;27.63;;
55537;SDS011;41383;51.418;7.286;2023-02-10T08:29:30;45.63;;;25.50;;
55537;SDS011;41383;51.418;7.286;2023-02-10T08:31:56;52.58;;;27.63;;
55537;SDS011;41383;51.418;7.286;2023-02-10T08:34:21;46.77;;;24.13;;
55537;SDS011;41383;51.418;7.286;2023-02-10T08:36:47;47.78;;;26.20;;
55537;SDS011;41383;51.418;7.286;2023-02-10T08:39:13;44.78;;;25.50;;
55537;SDS011;41383;51.418;7.286;2023-02-10T08:41:39;48.85;;;27.05;;
55537;SDS011;41383;51.418;7.286;2023-02-10T08:44:04;51.78;;;28.17;;
55537;SDS011;41383;51.418;7.286;2023-02-10T08:46:31;57.03;;;27.77;;
55537;SDS011;41383;51.418;7.286;2023-02-10T08:48:56;42.22;;;25.63;;
55537;SDS011;41383;51.418;7.286;2023-02-10T08:51:22;51.55;;;26.65;;
55537;SDS011;41383;51.418;7.286;2023-02-10T08:53:47;64.82;;;33.80;;
55537;SDS011;41383;51.418;7.286;2023-02-10T08:56:15;49.65;;;27.95;;
55537;SDS011;41383;51.418;7.286;2023-02-10T08:58:41;58.58;;;28.98;;
55537;SDS011;41383;51.418;7.286;2023-02-10T09:01:08;45.10;;;24.70;;
55537;SDS011;41383;51.418;7.286;2023-02-10T09:03:41;53.72;;;29.52;;
55537;SDS011;41383;51.418;7.286;2023-02-10T09:08:53;47.35;;;25.13;;
55537;SDS011;41383;51.418;7.286;2023-02-10T09:11:19;61.10;;;29.50;;
55537;SDS011;41383;51.418;7.286;2023-02-10T09:13:47;46.38;;;25.15;;
55537;SDS011;41383;51.418;7.286;2023-02-10T09:16:13;43.22;;;25.27;;
55537;SDS011;41383;51.418;7.286;2023-02-10T09:18:38;62.10;;;31.65;;
55537;SDS011;41383;51.418;7.286;2023-02-10T09:21:03;50.33;;;27.02;;
55537;SDS011;41383;51.418;7.286;2023-02-10T09:23:28;50.95;;;28.45;;
55537;SDS011;41383;51.418;7.286;2023-02-10T09:25:54;54.10;;;26.47;;
55537;SDS011;41383;51.418;7.286;2023-02-10T09:28:22;57.78;;;28.40;;
55537;SDS011;41383;51.418;7.286;2023-02-10T09:30:48;47.60;;;24.40;;
55537;SDS011;41383;51.418;7.286;2023-02-10T09:33:14;49.25;;;25.05;;
55537;SDS011;41383;51.418;7.286;2023-02-10T09:35:40;55.17;;;31.92;;
55537;SDS011;41383;51.418;7.286;2023-02-10T09:38:06;49.95;;;26.20;;
55537;SDS011;41383;51.418;7.286;2023-02-10T09:40:32;54.40;;;25.98;;
55537;SDS011;41383;51.418;7.286;2023-02-10T09:43:06;48.88;;;27.90;;
55537;SDS011;41383;51.418;7.286;2023-02-10T09:45:46;51.55;;;27.92;;
55537;SDS011;41383;51.418;7.286;2023-02-10T09:48:31;47.95;;;26.98;;
55537;SDS011;41383;51.418;7.286;2023-02-10T09:54:10;64.80;;;30.95;;
55537;SDS011;41383;51.418;7.286;2023-02-10T09:56:35;53.55;;;27.48;;
55537;SDS011;41383;51.418;7.286;2023-02-10T09:59:02;53.50;;;28.58;;
55537;SDS011;41383;51.418;7.286;2023-02-10T10:01:30;52.28;;;24.73;;
55537;SDS011;41383;51.418;7.286;2023-02-10T10:04:03;51.90;;;25.10;;
55537;SDS011;41383;51.418;7.286;2023-02-10T10:06:33;61.00;;;28.52;;
55537;SDS011;41383;51.418;7.286;2023-02-10T10:11:36;51.38;;;29.25;;
55537;SDS011;41383;51.418;7.286;2023-02-10T10:14:18;57.10;;;26.70;;
55537;SDS011;41383;51.418;7.286;2023-02-10T10:22:35;35.50;;;22.73;;
55537;SDS011;41383;51.418;7.286;2023-02-10T10:30:46;52.03;;;26.50;;
55537;SDS011;41383;51.418;7.286;2023-02-10T10:35:47;49.22;;;22.77;;
55537;SDS011;41383;51.418;7.286;2023-02-10T10:38:18;48.42;;;24.05;;
55537;SDS011;41383;51.418;7.286;2023-02-10T10:40:47;50.30;;;25.08;;
55537;SDS011;41383;51.418;7.286;2023-02-10T10:43:20;46.45;;;26.27;;
55537;SDS011;41383;51.418;7.286;2023-02-10T10:45:49;46.10;;;25.40;;
55537;SDS011;41383;51.418;7.286;2023-02-10T10:50:49;50.05;;;25.52;;
55537;SDS011;41383;51.418;7.286;2023-02-10T10:53:24;53.40;;;24.25;;
55537;SDS011;41383;51.418;7.286;2023-02-10T10:59:13;44.97;;;21.37;;
55537;SDS011;41383;51.418;7.286;2023-02-10T11:01:45;43.17;;;21.15;;
55537;SDS011;41383;51.418;7.286;2023-02-10T11:04:13;44.30;;;22.60;;
55537;SDS011;41383;51.418;7.286;2023-02-10T11:06:41;44.30;;;22.55;;
55537;SDS011;41383;51.418;7.286;2023-02-10T11:09:29;36.55;;;22.17;;
55537;SDS011;41383;51.418;7.286;2023-02-10T11:14:40;36.53;;;22.52;;
55537;SDS011;41383;51.418;7.286;2023-02-10T11:17:17;42.88;;;22.90;;
55537;SDS011;41383;51.418;7.286;2023-02-10T11:19:58;43.90;;;20.05;;
55537;SDS011;41383;51.418;7.286;2023-02-10T11:22:55;42.28;;;22.00;;
55537;SDS011;41383;51.418;7.286;2023-02-10T11:27:53;43.33;;;23.40;;
55537;SDS011;41383;51.418;7.286;2023-02-10T11:30:24;42.05;;;23.33;;
55537;SDS011;41383;51.418;7.286;2023-02-10T11:32:51;41.58;;;24.08;;
55537;SDS011;41383;51.418;7.286;2023-02-10T11:35:16;43.35;;;20.92;;
55537;SDS011;41383;51.418;7.286;2023-02-10T11:37:42;45.60;;;25.17;;
55537;SDS011;41383;51.418;7.286;2023-02-10T11:40:18;42.78;;;23.90;;
55537;SDS011;41383;51.418;7.286;2023-02-10T11:42:46;42.03;;;24.08;;
55537;SDS011;41383;51.418;7.286;2023-02-10T11:45:21;45.10;;;24.30;;
55537;SDS011;41383;51.418;7.286;2023-02-10T11:47:58;54.75;;;26.90;;
55537;SDS011;41383;51.418;7.286;2023-02-10T11:50:29;43.47;;;22.15;;
55537;SDS011;41383;51.418;7.286;2023-02-10T11:52:57;48.17;;;23.88;;
55537;SDS011;41383;51.418;7.286;2023-02-10T11:55:25;40.80;;;20.73;;
55537;SDS011;41383;51.418;7.286;2023-02-10T12:01:06;37.03;;;20.48;;
55537;SDS011;41383;51.418;7.286;2023-02-10T12:03:39;37.25;;;23.73;;
55537;SDS011;41383;51.418;7.286;2023-02-10T12:17:01;40.95;;;20.65;;
55537;SDS011;41383;51.418;7.286;2023-02-10T12:29:18;41.28;;;21.08;;
55537;SDS011;41383;51.418;7.286;2023-02-10T12:32:07;38.33;;;22.33;;
55537;SDS011;41383;51.418;7.286;2023-02-10T12:34:54;37.50;;;20.65;;
55537;SDS011;41383;51.418;7.286;2023-02-10T12:43:04;35.08;;;19.20;;
55537;SDS011;41383;51.418;7.286;2023-02-10T12:45:50;36.03;;;19.08;;
55537;SDS011;41383;51.418;7.286;2023-02-10T12:51:24;41.55;;;19.60;;
55537;SDS011;41383;51.418;7.286;2023-02-10T12:59:15;31.67;;;16.83;;
55537;SDS011;41383;51.418;7.286;2023-02-10T13:01:49;41.47;;;17.17;;
55537;SDS011;41383;51.418;7.286;2023-02-10T13:04:26;33.63;;;16.75;;
55537;SDS011;41383;51.418;7.286;2023-02-10T13:07:03;36.35;;;16.25;;
55537;SDS011;41383;51.418;7.286;2023-02-10T13:12:35;30.33;;;14.45;;
55537;SDS011;41383;51.418;7.286;2023-02-10T13:17:58;34.47;;;16.92;;
55537;SDS011;41383;51.418;7.286;2023-02-10T13:29:36;31.13;;;14.02;;
55537;SDS011;41383;51.418;7.286;2023-02-10T13:35:06;28.15;;;13.07;;
55537;SDS011;41383;51.418;7.286;2023-02-10T13:37:41;28.85;;;14.95;;
55537;SDS011;41383;51.418;7.286;2023-02-10T13:42:59;32.72;;;13.98;;
55537;SDS011;41383;51.418;7.286;2023-02-10T13:45:27;34.15;;;16.30;;
55537;SDS011;41383;51.418;7.286;2023-02-10T13:48:01;30.90;;;14.82;;
55537;SDS011;41383;51.418;7.286;2023-02-10T13:50:30;27.00;;;15.55;;
55537;SDS011;41383;51.418;7.286;2023-02-10T13:53:25;29.65;;;14.32;;
55537;SDS011;41383;51.418;7.286;2023-02-10T13:55:51;33.58;;;14.63;;
55537;SDS011;41383;51.418;7.286;2023-02-10T13:58:50;33.63;;;13.23;;
55537;SDS011;41383;51.418;7.286;2023-02-10T14:01:34;32.90;;;14.55;;
55537;SDS011;41383;51.418;7.286;2023-02-10T14:04:02;29.83;;;12.88;;
55537;SDS011;41383;51.418;7.286;2023-02-10T14:06:35;39.25;;;15.07;;
55537;SDS011;41383;51.418;7.286;2023-02-10T14:09:06;25.92;;;14.25;;
55537;SDS011;41383;51.418;7.286;2023-02-10T14:11:42;23.33;;;12.23;;
55537;SDS011;41383;51.418;7.286;2023-02-10T14:14:41;35.80;;;15.40;;
55537;SDS011;41383;51.418;7.286;2023-02-10T14:17:03;24.92;;;12.88;;
55537;SDS011;41383;51.418;7.286;2023-02-10T14:22:48;30.52;;;15.60;;
55537;SDS011;41383;51.418;7.286;2023-02-10T14:25:27;29.77;;;15.02;;
55537;SDS011;41383;51.418;7.286;2023-02-10T14:28:01;31.52;;;15.65;;
55537;SDS011;41383;51.418;7.286;2023-02-10T14:33:01;26.75;;;14.43;;
55537;SDS011;41383;51.418;7.286;2023-02-10T14:35:27;30.52;;;15.20;;
55537;SDS011;41383;51.418;7.286;2023-02-10T14:37:53;36.65;;;17.60;;
55537;SDS011;41383;51.418;7.286;2023-02-10T14:40:22;36.72;;;18.05;;
55537;SDS011;41383;51.418;7.286;2023-02-10T14:42:49;56.42;;;17.63;;
55537;SDS011;41383;51.418;7.286;2023-02-10T14:45:18;40.63;;;20.42;;
55537;SDS011;41383;51.418;7.286;2023-02-10T14:47:46;33.40;;;15.75;;
55537;SDS011;41383;51.418;7.286;2023-02-10T14:50:27;42.17;;;19.00;;
55537;SDS011;41383;51.418;7.286;2023-02-10T14:52:55;38.88;;;18.90;;
55537;SDS011;41383;51.418;7.286;2023-02-10T14:55:22;32.67;;;16.40;;
55537;SDS011;41383;51.418;7.286;2023-02-10T14:57:51;32.33;;;16.83;;
55537;SDS011;41383;51.418;7.286;2023-02-10T15:00:16;35.80;;;18.92;;
55537;SDS011;41383;51.418;7.286;2023-02-10T15:02:45;45.55;;;20.17;;
55537;SDS011;41383;51.418;7.286;2023-02-10T15:05:17;47.40;;;19.08;;
55537;SDS011;41383;51.418;7.286;2023-02-10T15:07:45;39.42;;;19.50;;
55537;SDS011;41383;51.418;7.286;2023-02-10T15:10:19;30.05;;;16.65;;
55537;SDS011;41383;51.418;7.286;2023-02-10T15:12:54;33.70;;;18.48;;
55537;SDS011;41383;51.418;7.286;2023-02-10T15:17:57;33.90;;;20.08;;
55537;SDS011;41383;51.418;7.286;2023-02-10T15:20:32;39.72;;;16.95;;
55537;SDS011;41383;51.418;7.286;2023-02-10T15:30:41;35.03;;;18.88;;
55537;SDS011;41383;51.418;7.286;2023-02-10T15:33:24;34.80;;;18.90;;
55537;SDS011;41383;51.418;7.286;2023-02-10T15:38:19;39.88;;;18.90;;
55537;SDS011;41383;51.418;7.286;2023-02-10T15:40:54;37.28;;;17.02;;
55537;SDS011;41383;51.418;7.286;2023-02-10T15:43:22;40.25;;;20.65;;
55537;SDS011;41383;51.418;7.286;2023-02-10T15:46:14;32.08;;;16.83;;
55537;SDS011;41383;51.418;7.286;2023-02-10T15:48:40;35.92;;;18.63;;
55537;SDS011;41383;51.418;7.286;2023-02-10T15:51:08;34.85;;;20.17;;
55537;SDS011;41383;51.418;7.286;2023-02-10T15:53:51;55.95;;;22.92;;
55537;SDS011;41383;51.418;7.286;2023-02-10T15:56:20;35.53;;;18.63;;
55537;SDS011;41383;51.418;7.286;2023-02-10T15:58:48;32.55;;;18.25;;
55537;SDS011;41383;51.418;7.286;2023-02-10T16:01:13;33.95;;;18.65;;
55537;SDS011;41383;51.418;7.286;2023-02-10T16:03:39;31.60;;;18.50;;
55537;SDS011;41383;51.418;7.286;2023-02-10T16:06:04;31.70;;;15.63;;
55537;SDS011;41383;51.418;7.286;2023-02-10T16:08:29;32.63;;;17.23;;
55537;SDS011;41383;51.418;7.286;2023-02-10T16:10:56;27.38;;;15.57;;
55537;SDS011;41383;51.418;7.286;2023-02-10T16:13:21;35.42;;;17.70;;
55537;SDS011;41383;51.418;7.286;2023-02-10T16:15:47;35.20;;;16.37;;
55537;SDS011;41383;51.418;7.286;2023-02-10T16:18:15;26.40;;;14.98;;
55537;SDS011;41383;51.418;7.286;2023-02-10T16:20:45;37.20;;;18.02;;
55537;SDS011;41383;51.418;7.286;2023-02-10T16:23:15;30.17;;;15.63;;
55537;SDS011;41383;51.418;7.286;2023-02-10T16:25:42;32.38;;;18.55;;
55537;SDS011;41383;51.418;7.286;2023-02-10T16:28:09;32.80;;;15.63;;
55537;SDS011;41383;51.418;7.286;2023-02-10T16:30:38;31.52;;;15.30;;
55537;SDS011;41383;51.418;7.286;2023-02-10T16:33:04;30.35;;;16.67;;
55537;SDS011;41383;51.418;7.286;2023-02-10T16:35:29;27.95;;;16.35;;
55537;SDS011;41383;51.418;7.286;2023-02-10T16:37:55;27.30;;;15.27;;
55537;SDS011;41383;51.418;7.286;2023-02-10T16:40:27;33.72;;;17.98;;